This is the latest recevied weather packets stored in our database for station/object SQ7IQO. If no packets are shown the sender has not sent any weather packets the latest 10 day(s).
| Time | Temp. | Humidity | Pressure | Rain* | Wind** | Luminosity | Snow |
|---|---|---|---|---|---|---|---|
| 1788005801 | 21.67° C | 68% | 1199.5 hPa | 0 mm | 0 m/s | - | - |
| 1788005741 | 22.78° C | 66% | 1015 hPa | 0 mm | 1.34 m/s, ° | - | - |
| 1788005681 | 23.33° C | 65% | 1015 hPa | 0 mm | 0.89 m/s, ° | - | - |
| 1788005622 | 23.33° C | 65% | 1078.4 hPa | 0 mm | 0.89 m/s, ° | - | - |
| 1788005562 | 23.89° C | 64% | 1015 hPa | 0 mm | 1.34 m/s, ° | - | - |
| 1788005502 | 23.33° C | 66% | 1015 hPa | 0 mm | 0.45 m/s, ° | - | - |
| 1788005442 | 22.78° C | 66% | 1014.9 hPa | 0 mm | 0.89 m/s, ° | - | - |
| 1788005382 | 22.78° C | 67% | 1014.9 hPa | 0 mm | 1.34 m/s, ° | - | - |
| 1788005322 | 22.22° C | 68% | 1015 hPa | 0 mm | 0.89 m/s, ° | - | - |
| 1788005261 | 22.22° C | 69% | 1014.9 hPa | 0 mm | 1.34 m/s, ° | - | - |
| 1788005202 | 22.22° C | 69% | 1014.9 hPa | 0 mm | 1.34 m/s, ° | - | - |
| 1788005141 | 22.78° C | 67% | 1014.9 hPa | 0 mm | 1.34 m/s, ° | - | - |
| 1788005082 | 22.78° C | 66% | 1014.9 hPa | 0 mm | 0.89 m/s, ° | - | - |
| 1788005022 | 23.33° C | 64% | 1014.9 hPa | 0 mm | 0.89 m/s, ° | - | - |
| 1788004962 | 23.33° C | 65% | 1014.8 hPa | 0 mm | 0.89 m/s, ° | - | - |
| 1788004902 | 22.78° C | 66% | 1014.8 hPa | 0 mm | 0.89 m/s, ° | - | - |
| 1788004842 | 22.78° C | 65% | 1014.9 hPa | 0 mm | 1.34 m/s, ° | - | - |
| 1788004782 | 22.78° C | 66% | 1014.8 hPa | 0 mm | 0.89 m/s, ° | - | - |
| 1788004722 | 22.22° C | 67% | 1014.8 hPa | 0 mm | 1.34 m/s, ° | - | - |
| 1788004661 | 22.22° C | 68% | 1014.9 hPa | 0 mm | 2.24 m/s, ° | - | - |
| 1788004602 | 22.22° C | 71% | 1014.9 hPa | 0 mm | 1.34 m/s, ° | - | - |
| 1788004542 | 22.78° C | 68% | 1014.9 hPa | 0 mm | 0.89 m/s, ° | - | - |
| 1788004482 | 22.78° C | 68% | 1014.9 hPa | 0 mm | 0.45 m/s, ° | - | - |
| 1788004421 | 22.78° C | 68% | 1014.9 hPa | 0 mm | 0.89 m/s, ° | - | - |
| 1788004361 | 22.22° C | 71% | 1014.9 hPa | 0 mm | 1.34 m/s, ° | - | - |
* Rain latest hour (hover to see other rain measurements)
** Current wind speed in m/s (hover to see current wind gust speed)